createdAt,value
2023-05-02T00:01:31.823Z,14.40
2023-05-02T00:03:35.526Z,13.37
2023-05-02T00:05:39.083Z,12.87
2023-05-02T00:07:42.420Z,13.80
2023-05-02T00:09:45.793Z,19.80
2023-05-02T00:11:50.469Z,22.13
2023-05-02T00:13:53.895Z,20.67
2023-05-02T00:15:57.266Z,17.47
2023-05-02T00:18:01.405Z,19.20
2023-05-02T00:20:05.465Z,17.83
2023-05-02T00:22:08.829Z,19.70
2023-05-02T00:24:12.194Z,19.53
2023-05-02T00:26:15.609Z,19.90
2023-05-02T00:28:21.065Z,20.60
2023-05-02T00:30:24.358Z,21.53
2023-05-02T00:32:28.747Z,20.73
2023-05-02T00:34:32.176Z,24.93
2023-05-02T00:36:35.520Z,23.97
2023-05-02T00:38:38.814Z,23.47
2023-05-02T00:40:46.380Z,24.70
2023-05-02T00:42:49.847Z,25.00
2023-05-02T00:44:54.505Z,28.57
2023-05-02T00:46:58.965Z,27.27
2023-05-02T00:49:02.747Z,26.13
2023-05-02T00:51:06.388Z,29.33
2023-05-02T00:53:11.051Z,32.07
2023-05-02T00:55:14.669Z,28.00
2023-05-02T00:57:18.624Z,29.40
2023-05-02T00:59:22.156Z,25.13
2023-05-02T01:01:41.013Z,29.50
2023-05-02T01:03:56.611Z,29.73
2023-05-02T01:06:12.942Z,26.30
2023-05-02T01:08:28.059Z,32.80
2023-05-02T01:10:49.013Z,26.40
2023-05-02T01:12:59.944Z,32.00
2023-05-02T01:15:08.624Z,33.00
2023-05-02T01:17:17.441Z,28.13
2023-05-02T01:19:27.388Z,29.30
2023-05-02T01:21:31.189Z,31.00
2023-05-02T01:23:44.427Z,31.83
2023-05-02T01:26:02.369Z,31.00
2023-05-02T01:28:18.013Z,36.77
2023-05-02T01:30:25.496Z,28.10
2023-05-02T01:32:30.968Z,31.63
2023-05-02T01:34:36.854Z,33.30
2023-05-02T01:36:44.963Z,31.87
2023-05-02T01:38:50.532Z,34.70
2023-05-02T01:40:55.465Z,32.53
2023-05-02T01:43:00.708Z,29.13
2023-05-02T01:45:05.651Z,32.03
2023-05-02T01:47:11.441Z,32.73
2023-05-02T01:49:15.787Z,29.33
2023-05-02T01:51:21.671Z,32.33
2023-05-02T01:53:26.748Z,31.60
2023-05-02T01:55:30.248Z,34.97
2023-05-02T01:57:34.127Z,30.77
2023-05-02T01:59:38.338Z,34.33
2023-05-02T02:01:44.839Z,34.93
2023-05-02T02:03:50.103Z,35.03
2023-05-02T02:05:55.341Z,35.57
2023-05-02T02:07:59.155Z,40.53
2023-05-02T02:10:03.110Z,38.83
2023-05-02T02:12:09.797Z,33.10
2023-05-02T02:14:19.522Z,37.07
2023-05-02T02:16:26.594Z,32.73
2023-05-02T02:18:33.538Z,33.37
2023-05-02T02:20:40.180Z,39.23
2023-05-02T02:22:46.393Z,36.77
2023-05-02T02:24:53.052Z,38.00
2023-05-02T02:26:57.880Z,34.23
2023-05-02T02:29:01.577Z,37.73
2023-05-02T02:31:04.946Z,41.27
2023-05-02T02:33:08.464Z,35.23
2023-05-02T02:35:12.510Z,36.93
2023-05-02T02:37:20.514Z,32.10
2023-05-02T02:39:36.847Z,38.40
2023-05-02T02:41:45.865Z,33.70
2023-05-02T02:43:54.832Z,31.90
2023-05-02T02:46:09.703Z,29.97
2023-05-02T02:48:30.653Z,28.37
2023-05-02T02:50:39.349Z,34.53
2023-05-02T02:52:53.434Z,33.73
2023-05-02T02:55:01.653Z,29.27
2023-05-02T02:57:14.673Z,36.83
2023-05-02T02:59:24.874Z,31.67
2023-05-02T03:01:31.829Z,32.70
2023-05-02T03:03:35.695Z,31.87
2023-05-02T03:05:39.762Z,35.37
2023-05-02T03:07:43.842Z,29.30
2023-05-02T03:09:49.178Z,27.13
2023-05-02T03:11:57.873Z,29.23
2023-05-02T03:14:02.547Z,35.00
2023-05-02T03:16:35.148Z,29.23
2023-05-02T03:18:39.881Z,26.70
2023-05-02T03:20:43.271Z,30.67
2023-05-02T03:22:46.980Z,32.60
2023-05-02T03:24:52.227Z,26.77
2023-05-02T03:26:56.862Z,30.93
2023-05-02T03:29:04.265Z,27.77
2023-05-02T03:31:13.433Z,27.90
2023-05-02T03:33:16.959Z,34.33
2023-05-02T03:35:22.046Z,25.70
2023-05-02T03:37:28.168Z,27.37
2023-05-02T03:39:33.887Z,26.37
2023-05-02T03:41:39.820Z,28.20
2023-05-02T03:43:46.530Z,32.17
2023-05-02T03:45:50.105Z,29.80
2023-05-02T03:47:53.867Z,30.77
2023-05-02T03:49:58.219Z,30.67
2023-05-02T03:52:02.597Z,28.10
2023-05-02T03:54:10.513Z,27.60
2023-05-02T03:56:20.100Z,27.70
2023-05-02T03:58:32.107Z,36.83
2023-05-02T04:00:36.399Z,30.80
2023-05-02T04:02:43.702Z,32.97
2023-05-02T04:04:51.848Z,28.80
2023-05-02T04:06:57.695Z,29.33
2023-05-02T04:09:01.259Z,29.87
2023-05-02T04:11:11.445Z,30.97
2023-05-02T04:13:14.987Z,28.17
2023-05-02T04:15:26.089Z,29.87
2023-05-02T04:17:36.198Z,32.10
2023-05-02T04:19:46.497Z,33.00
2023-05-02T04:21:52.222Z,29.53
2023-05-02T04:23:57.450Z,31.43
2023-05-02T04:26:01.250Z,27.17
2023-05-02T04:28:13.022Z,30.20
2023-05-02T04:30:16.575Z,29.90
2023-05-02T04:32:28.233Z,26.03
2023-05-02T04:34:32.694Z,26.80
2023-05-02T04:36:36.162Z,28.57
2023-05-02T04:38:39.609Z,27.50
2023-05-02T04:40:43.525Z,32.50
2023-05-02T04:42:47.262Z,28.43
2023-05-02T04:44:53.855Z,29.03
2023-05-02T04:47:01.129Z,22.77
2023-05-02T04:49:06.047Z,29.07
2023-05-02T04:51:11.013Z,29.60
2023-05-02T04:53:14.559Z,26.53
2023-05-02T04:55:18.043Z,30.23
2023-05-02T04:57:23.439Z,27.33
2023-05-02T04:59:35.108Z,21.63
2023-05-02T05:01:39.303Z,24.43
2023-05-02T05:03:44.998Z,27.90
2023-05-02T05:05:50.813Z,27.23
2023-05-02T05:07:56.378Z,21.03
2023-05-02T05:10:02.237Z,31.73
2023-05-02T05:12:11.974Z,27.77
2023-05-02T05:14:15.293Z,33.30
2023-05-02T05:16:22.263Z,28.40
2023-05-02T05:18:25.915Z,26.00
2023-05-02T05:20:29.866Z,23.77
2023-05-02T05:22:41.489Z,29.40
2023-05-02T05:24:52.665Z,27.50
2023-05-02T05:26:56.852Z,24.23
2023-05-02T05:29:00.393Z,28.50
2023-05-02T05:31:10.631Z,20.80
2023-05-02T05:33:14.769Z,20.97
2023-05-02T05:35:18.512Z,24.80
2023-05-02T05:37:22.820Z,21.50
2023-05-02T05:39:27.722Z,22.57
2023-05-02T05:41:34.172Z,26.40
2023-05-02T05:43:41.921Z,26.47
2023-05-02T05:45:46.319Z,23.17
2023-05-02T05:47:49.814Z,17.40
2023-05-02T05:49:54.996Z,28.30
2023-05-02T05:52:01.899Z,18.17
2023-05-02T05:54:05.872Z,20.00
2023-05-02T05:56:11.670Z,24.00
2023-05-02T05:58:17.808Z,24.23
2023-05-02T06:00:21.993Z,23.97
2023-05-02T06:02:28.433Z,23.07
2023-05-02T06:04:32.819Z,25.00
2023-05-02T06:06:36.520Z,24.57
2023-05-02T06:08:39.907Z,21.80
2023-05-02T06:10:43.223Z,25.00
2023-05-02T06:12:49.266Z,22.27
2023-05-02T06:14:55.060Z,26.27
2023-05-02T06:17:00.343Z,22.33
2023-05-02T06:19:04.681Z,24.40
2023-05-02T06:21:08.512Z,25.30
2023-05-02T06:23:12.181Z,17.37
2023-05-02T06:25:15.786Z,23.27
2023-05-02T06:27:19.136Z,22.80
2023-05-02T06:29:23.965Z,22.00
2023-05-02T06:31:27.329Z,16.13
2023-05-02T06:33:30.963Z,22.77
2023-05-02T06:35:34.317Z,24.07
2023-05-02T06:37:37.874Z,24.23
2023-05-02T06:39:41.209Z,19.40
2023-05-02T06:41:44.533Z,23.17
2023-05-02T06:43:52.648Z,26.37
2023-05-02T06:45:57.790Z,22.90
2023-05-02T06:48:01.479Z,17.03
2023-05-02T06:50:05.170Z,20.37
2023-05-02T06:52:08.699Z,23.20
2023-05-02T06:54:12.202Z,21.43
2023-05-02T06:56:15.689Z,26.73
2023-05-02T06:58:19.069Z,22.33
2023-05-02T07:00:22.837Z,26.37
2023-05-02T07:02:27.717Z,22.80
2023-05-02T07:04:31.318Z,20.97
2023-05-02T07:06:34.818Z,20.53
2023-05-02T07:08:38.648Z,20.17
2023-05-02T07:10:41.938Z,19.13
2023-05-02T07:12:45.327Z,21.70
2023-05-02T07:14:48.703Z,21.03
2023-05-02T07:16:52.215Z,18.90
2023-05-02T07:18:57.016Z,15.63
2023-05-02T07:21:01.322Z,16.20
2023-05-02T07:23:04.700Z,14.10
2023-05-02T07:25:09.947Z,13.87
2023-05-02T07:27:13.950Z,16.80
2023-05-02T07:29:17.372Z,15.60
2023-05-02T07:31:20.946Z,14.17
2023-05-02T07:33:24.424Z,13.83
2023-05-02T07:35:29.242Z,12.80
2023-05-02T07:37:34.797Z,11.83
2023-05-02T07:39:38.147Z,12.13
2023-05-02T07:41:41.488Z,10.97
2023-05-02T07:43:44.896Z,9.83
2023-05-02T07:45:48.368Z,13.57
2023-05-02T07:47:51.977Z,11.87
2023-05-02T07:49:56.291Z,13.30
2023-05-02T07:52:01.136Z,12.90
2023-05-02T07:54:04.751Z,10.57
2023-05-02T07:56:09.464Z,9.27
2023-05-02T07:58:12.849Z,12.57
2023-05-02T08:00:17.249Z,7.70
2023-05-02T08:02:23.678Z,10.50
2023-05-02T08:04:27.388Z,11.83
2023-05-02T08:06:30.932Z,10.80
2023-05-02T08:08:35.729Z,8.50
2023-05-02T08:10:39.039Z,7.60
2023-05-02T08:12:43.104Z,8.80
2023-05-02T08:14:46.481Z,7.87
2023-05-02T08:16:50.086Z,7.50
2023-05-02T08:18:53.492Z,8.00
2023-05-02T08:20:58.476Z,7.73
2023-05-02T08:23:01.928Z,12.67
2023-05-02T08:25:07.510Z,11.57
2023-05-02T08:27:10.778Z,13.50
2023-05-02T08:29:14.200Z,13.47
2023-05-02T08:31:17.573Z,12.70
2023-05-02T08:33:21.030Z,12.43
2023-05-02T08:35:24.492Z,12.30
2023-05-02T08:37:27.787Z,17.20
2023-05-02T08:39:34.211Z,12.97
2023-05-02T08:41:39.917Z,12.80
2023-05-02T08:43:43.283Z,14.53
2023-05-02T08:45:46.810Z,15.40
2023-05-02T08:47:51.608Z,10.53
2023-05-02T08:49:57.797Z,7.37
2023-05-02T08:52:02.627Z,6.70
2023-05-02T08:54:09.525Z,4.83
2023-05-02T08:56:14.052Z,5.63
2023-05-02T08:58:18.889Z,7.43
2023-05-02T09:00:22.325Z,4.97
2023-05-02T09:02:39.535Z,5.20
2023-05-02T09:04:44.402Z,7.07
2023-05-02T09:06:47.853Z,8.37
2023-05-02T09:08:53.340Z,8.20
2023-05-02T09:10:56.739Z,8.27
2023-05-02T09:13:28.949Z,7.20
2023-05-02T09:15:33.709Z,8.07
2023-05-02T09:17:41.501Z,7.37
2023-05-02T09:19:44.863Z,8.03
2023-05-02T09:21:48.322Z,5.60
2023-05-02T09:23:53.708Z,6.87
2023-05-02T09:25:57.085Z,9.47
2023-05-02T09:28:01.849Z,6.77
2023-05-02T09:30:22.043Z,7.17
2023-05-02T09:32:46.043Z,6.47
2023-05-02T09:35:07.846Z,6.90
2023-05-02T09:37:11.433Z,8.53
2023-05-02T09:39:16.297Z,7.43
2023-05-02T09:41:21.063Z,9.10
2023-05-02T09:43:24.448Z,5.73
2023-05-02T09:45:28.055Z,6.37
2023-05-02T09:47:33.177Z,7.00
2023-05-02T09:49:41.484Z,10.60
2023-05-02T09:51:44.829Z,6.60
2023-05-02T09:53:48.567Z,6.60
2023-05-02T09:56:02.548Z,7.90
2023-05-02T09:58:06.587Z,8.67
2023-05-02T10:00:11.234Z,8.33
2023-05-02T10:02:16.079Z,8.30
2023-05-02T10:04:21.202Z,10.23
2023-05-02T10:06:24.716Z,10.00
2023-05-02T10:08:29.612Z,8.27
2023-05-02T10:10:34.162Z,15.30
2023-05-02T10:12:39.541Z,8.37
2023-05-02T10:14:50.739Z,7.33
2023-05-02T10:17:00.950Z,13.00
2023-05-02T10:19:10.077Z,6.17
2023-05-02T10:21:18.750Z,6.00
2023-05-02T10:23:23.358Z,8.00
2023-05-02T10:25:27.040Z,6.20
2023-05-02T10:27:31.274Z,8.17
2023-05-02T10:29:36.066Z,6.97
2023-05-02T10:31:42.356Z,6.50
2023-05-02T10:33:50.744Z,7.50
2023-05-02T10:35:54.207Z,5.97
2023-05-02T10:38:01.923Z,5.73
2023-05-02T10:40:06.862Z,5.20
2023-05-02T10:42:11.041Z,6.87
2023-05-02T10:44:14.606Z,8.87
2023-05-02T10:46:34.956Z,3.73
2023-05-02T10:48:38.744Z,4.23
2023-05-02T10:50:46.489Z,5.07
2023-05-02T10:52:49.909Z,4.10
2023-05-02T10:55:15.021Z,3.50
2023-05-02T10:57:18.422Z,3.83
2023-05-02T10:59:29.707Z,3.97
2023-05-02T11:01:42.019Z,2.77
2023-05-02T11:03:59.010Z,6.07
2023-05-02T11:06:09.663Z,5.10
2023-05-02T11:08:31.949Z,5.20
2023-05-02T11:10:36.697Z,4.00
2023-05-02T11:12:47.924Z,3.53
2023-05-02T11:14:51.334Z,3.63
2023-05-02T11:17:10.343Z,6.93
2023-05-02T11:19:13.771Z,4.83
2023-05-02T11:21:30.138Z,4.53
2023-05-02T11:23:36.819Z,3.33
2023-05-02T11:25:43.478Z,3.00
2023-05-02T11:27:49.368Z,5.17
2023-05-02T11:29:53.334Z,4.30
2023-05-02T11:31:56.836Z,4.27
2023-05-02T11:34:01.336Z,4.67
2023-05-02T11:36:05.179Z,5.57
2023-05-02T11:38:12.349Z,4.80
2023-05-02T11:40:16.690Z,6.40
2023-05-02T11:42:31.704Z,7.10
2023-05-02T11:44:35.794Z,5.37
2023-05-02T11:46:40.000Z,5.37
2023-05-02T11:48:48.328Z,6.63
2023-05-02T11:50:53.148Z,6.17
2023-05-02T11:52:57.255Z,7.17
2023-05-02T11:55:00.846Z,7.73
2023-05-02T11:57:04.878Z,6.20
2023-05-02T11:59:09.573Z,7.50
2023-05-02T12:01:14.415Z,6.80
2023-05-02T12:03:25.716Z,8.77
2023-05-02T12:05:30.583Z,5.83
2023-05-02T12:07:38.334Z,4.83
2023-05-02T12:09:54.874Z,6.60
2023-05-02T12:11:59.183Z,7.77
2023-05-02T12:14:03.421Z,6.67
2023-05-02T12:16:08.857Z,6.70
2023-05-02T12:18:13.481Z,8.00
2023-05-02T12:20:19.246Z,6.60
2023-05-02T12:22:24.708Z,8.70
2023-05-02T12:24:31.305Z,5.97
2023-05-02T12:26:34.641Z,4.97
2023-05-02T12:28:49.370Z,5.30
2023-05-02T12:30:53.119Z,6.57
2023-05-02T12:33:02.434Z,6.23
2023-05-02T12:35:07.564Z,8.60
2023-05-02T12:37:11.688Z,4.50
2023-05-02T12:39:15.194Z,6.13
2023-05-02T12:41:18.897Z,5.33
2023-05-02T12:43:22.820Z,6.17
2023-05-02T12:45:29.105Z,5.17
2023-05-02T12:47:46.019Z,5.97
2023-05-02T12:49:51.607Z,6.80
2023-05-02T12:51:56.255Z,10.77
2023-05-02T12:53:59.676Z,7.33
2023-05-02T12:56:03.787Z,11.13
2023-05-02T12:58:09.201Z,6.80
2023-05-02T13:00:13.918Z,5.80
2023-05-02T13:02:17.264Z,11.63
2023-05-02T13:04:20.732Z,6.77
2023-05-02T13:06:26.079Z,7.23
2023-05-02T13:08:29.460Z,7.90
2023-05-02T13:10:33.169Z,7.40
2023-05-02T13:12:38.271Z,6.70
2023-05-02T13:14:41.826Z,6.80
2023-05-02T13:16:45.434Z,7.30
2023-05-02T13:18:48.845Z,12.80
2023-05-02T13:20:52.216Z,9.33
2023-05-02T13:22:56.991Z,6.97
2023-05-02T13:25:00.795Z,6.33
2023-05-02T13:27:04.477Z,8.13
2023-05-02T13:29:09.643Z,8.80
2023-05-02T13:31:12.969Z,7.33
2023-05-02T13:33:16.330Z,6.87
2023-05-02T13:35:19.669Z,7.23
2023-05-02T13:37:23.346Z,6.20
2023-05-02T13:39:28.091Z,6.23
2023-05-02T13:41:31.439Z,6.57
2023-05-02T13:43:34.876Z,6.13
2023-05-02T13:45:38.346Z,5.63
2023-05-02T13:47:44.982Z,6.00
2023-05-02T13:49:48.374Z,6.10
2023-05-02T13:51:52.089Z,6.30
2023-05-02T13:53:55.604Z,6.20
2023-05-02T13:56:00.482Z,6.20
2023-05-02T13:58:03.839Z,8.97
2023-05-02T14:00:09.747Z,5.43
2023-05-02T14:02:13.177Z,7.57
2023-05-02T14:04:16.471Z,6.83
2023-05-02T14:06:19.764Z,5.77
2023-05-02T14:08:23.075Z,7.93
2023-05-02T14:10:26.808Z,6.17
2023-05-02T14:12:31.651Z,8.90
2023-05-02T14:14:36.105Z,7.10
2023-05-02T14:16:39.708Z,6.37
2023-05-02T14:18:43.515Z,6.60
2023-05-02T14:20:47.115Z,8.57
2023-05-02T14:22:50.730Z,6.73
2023-05-02T14:24:54.030Z,6.50
2023-05-02T14:26:58.324Z,5.63
2023-05-02T14:29:03.218Z,6.90
2023-05-02T14:31:06.741Z,9.03
2023-05-02T14:33:10.927Z,9.00
2023-05-02T14:35:14.445Z,7.70
2023-05-02T14:37:18.157Z,7.00
2023-05-02T14:39:21.495Z,7.73
2023-05-02T14:41:25.161Z,7.50
2023-05-02T14:43:28.709Z,5.60
2023-05-02T14:45:33.401Z,7.37
2023-05-02T14:47:36.901Z,4.87
2023-05-02T14:49:42.002Z,5.87
2023-05-02T14:51:47.514Z,6.93
2023-05-02T14:53:50.993Z,5.83
2023-05-02T14:55:54.343Z,5.20
2023-05-02T14:57:58.425Z,4.10
2023-05-02T15:00:02.394Z,6.37
2023-05-02T15:02:08.030Z,4.97
2023-05-02T15:04:11.634Z,5.97
2023-05-02T15:06:15.570Z,5.20
2023-05-02T15:08:19.517Z,6.70
2023-05-02T15:10:22.859Z,4.30
2023-05-02T15:12:26.316Z,4.70
2023-05-02T15:14:29.718Z,5.07
2023-05-02T15:16:33.246Z,6.17
2023-05-02T15:18:37.990Z,7.30
2023-05-02T15:20:41.290Z,5.30
2023-05-02T15:22:44.617Z,5.33
2023-05-02T15:24:48.016Z,4.30
2023-05-02T15:26:51.358Z,4.90
2023-05-02T15:28:54.770Z,3.83
2023-05-02T15:30:58.019Z,5.27
2023-05-02T15:33:01.393Z,5.10
2023-05-02T15:35:07.876Z,4.63
2023-05-02T15:37:11.298Z,4.77
2023-05-02T15:39:14.734Z,5.70
2023-05-02T15:41:18.097Z,4.80
2023-05-02T15:43:21.560Z,5.43
2023-05-02T15:45:25.513Z,4.97
2023-05-02T15:47:29.299Z,4.67
2023-05-02T15:49:33.227Z,4.87
2023-05-02T15:51:38.418Z,4.63
2023-05-02T15:53:44.299Z,4.47
2023-05-02T15:55:47.760Z,5.67
2023-05-02T15:57:53.002Z,7.87
2023-05-02T15:59:56.375Z,7.80
2023-05-02T16:01:59.799Z,5.40
2023-05-02T16:04:06.147Z,5.10
2023-05-02T16:06:09.882Z,5.77
2023-05-02T16:08:14.581Z,7.50
2023-05-02T16:10:17.876Z,5.73
2023-05-02T16:12:21.270Z,5.07
2023-05-02T16:14:26.170Z,6.97
2023-05-02T16:16:29.589Z,8.30
2023-05-02T16:18:34.344Z,6.97
2023-05-02T16:20:37.851Z,5.30
2023-05-02T16:22:44.212Z,5.53
2023-05-02T16:24:48.964Z,6.33
2023-05-02T16:26:52.516Z,7.30
2023-05-02T16:28:55.908Z,4.40
2023-05-02T16:30:59.293Z,5.60
2023-05-02T16:33:03.728Z,5.90
2023-05-02T16:35:10.696Z,5.40
2023-05-02T16:37:14.121Z,5.17
2023-05-02T16:39:17.848Z,4.70
2023-05-02T16:41:23.164Z,5.40
2023-05-02T16:43:26.677Z,7.30
2023-05-02T16:45:30.104Z,4.23
2023-05-02T16:47:34.449Z,5.63
2023-05-02T16:49:39.243Z,4.60
2023-05-02T16:51:42.732Z,5.87
2023-05-02T16:53:46.282Z,3.63
2023-05-02T16:55:49.895Z,4.40
2023-05-02T16:57:54.554Z,4.97
2023-05-02T16:59:58.040Z,4.07
2023-05-02T17:02:02.296Z,4.40
2023-05-02T17:04:05.900Z,6.67
2023-05-02T17:06:09.749Z,6.53
2023-05-02T17:08:13.732Z,5.50
2023-05-02T17:10:17.348Z,6.20
2023-05-02T17:12:22.554Z,5.73
2023-05-02T17:14:27.492Z,6.87
2023-05-02T17:16:30.816Z,5.33
2023-05-02T17:18:34.461Z,4.80
2023-05-02T17:20:38.136Z,4.10
2023-05-02T17:22:41.706Z,4.20
2023-05-02T17:24:48.197Z,4.10
2023-05-02T17:26:52.065Z,5.13
2023-05-02T17:28:55.484Z,4.37
2023-05-02T17:31:00.332Z,5.70
2023-05-02T17:33:03.744Z,7.53
2023-05-02T17:35:07.620Z,5.27
2023-05-02T17:37:11.021Z,5.33
2023-05-02T17:39:15.872Z,3.00
2023-05-02T17:41:19.189Z,4.33
2023-05-02T17:43:22.531Z,7.00
2023-05-02T17:45:26.107Z,4.77
2023-05-02T17:47:31.098Z,4.53
2023-05-02T17:49:35.486Z,5.30
2023-05-02T17:51:38.801Z,5.23
2023-05-02T17:53:42.546Z,4.90
2023-05-02T17:55:45.862Z,5.17
2023-05-02T17:57:49.399Z,4.57
2023-05-02T17:59:56.571Z,5.20
2023-05-02T18:02:00.240Z,5.13
2023-05-02T18:04:05.128Z,5.93
2023-05-02T18:06:09.465Z,6.60
2023-05-02T18:08:12.805Z,3.83
2023-05-02T18:10:16.620Z,5.30
2023-05-02T18:12:20.481Z,8.90
2023-05-02T18:14:23.867Z,7.10
2023-05-02T18:16:29.397Z,5.73
2023-05-02T18:18:33.093Z,5.03
2023-05-02T18:20:43.696Z,4.53
2023-05-02T18:22:47.032Z,4.50
2023-05-02T18:24:50.755Z,6.73
2023-05-02T18:26:54.106Z,5.20
2023-05-02T18:28:57.480Z,6.40
2023-05-02T18:31:01.081Z,5.77
2023-05-02T18:33:04.572Z,4.33
2023-05-02T18:35:11.119Z,4.70
2023-05-02T18:37:15.773Z,4.47
2023-05-02T18:39:21.475Z,4.57
2023-05-02T18:41:24.866Z,3.70
2023-05-02T18:43:28.223Z,6.13
2023-05-02T18:45:31.562Z,5.67
2023-05-02T18:47:36.431Z,6.17
2023-05-02T18:49:40.939Z,9.07
2023-05-02T18:51:44.302Z,6.83
2023-05-02T18:53:49.581Z,3.83
2023-05-02T18:55:53.523Z,3.93
2023-05-02T18:57:57.909Z,3.70
2023-05-02T19:00:01.746Z,5.03
2023-05-02T19:02:05.331Z,5.60
2023-05-02T19:04:08.629Z,3.63
2023-05-02T19:06:12.499Z,5.13
2023-05-02T19:08:16.157Z,3.20
2023-05-02T19:10:20.820Z,2.80
2023-05-02T19:12:24.365Z,3.33
2023-05-02T19:14:28.009Z,11.10
2023-05-02T19:16:31.567Z,6.83
2023-05-02T19:18:35.146Z,12.57
2023-05-02T19:20:38.758Z,13.57
2023-05-02T19:22:42.892Z,8.30
2023-05-02T19:24:46.319Z,5.40
2023-05-02T19:26:51.070Z,8.27
2023-05-02T19:28:54.476Z,4.10
2023-05-02T19:30:58.475Z,4.23
2023-05-02T19:33:01.811Z,4.43
2023-05-02T19:35:07.077Z,4.47
2023-05-02T19:37:10.519Z,4.73
2023-05-02T19:39:13.865Z,3.90
2023-05-02T19:41:17.248Z,4.83
2023-05-02T19:43:21.996Z,6.07
2023-05-02T19:45:25.306Z,3.67
2023-05-02T19:47:29.589Z,4.43
2023-05-02T19:49:32.889Z,4.17
2023-05-02T19:51:36.281Z,3.67
2023-05-02T19:53:39.706Z,4.60
2023-05-02T19:55:43.237Z,6.03
2023-05-02T19:57:48.343Z,7.43
2023-05-02T19:59:53.287Z,4.80
2023-05-02T20:01:56.763Z,3.87
2023-05-02T20:04:00.197Z,6.47
2023-05-02T20:06:03.744Z,7.03
2023-05-02T20:08:07.119Z,5.43
2023-05-02T20:10:10.933Z,4.07
2023-05-02T20:12:14.199Z,4.43
2023-05-02T20:14:18.743Z,4.80
2023-05-02T20:16:23.607Z,6.50
2023-05-02T20:18:27.161Z,6.20
2023-05-02T20:20:31.149Z,4.87
2023-05-02T20:22:34.601Z,7.70
2023-05-02T20:24:37.925Z,6.30
2023-05-02T20:26:41.228Z,3.87
2023-05-02T20:28:44.559Z,4.20
2023-05-02T20:30:47.906Z,6.30
2023-05-02T20:32:52.759Z,5.77
2023-05-02T20:34:56.340Z,5.00
2023-05-02T20:37:01.428Z,5.70
2023-05-02T20:39:09.141Z,5.40
2023-05-02T20:41:13.895Z,3.93
2023-05-02T20:43:18.788Z,4.27
2023-05-02T20:45:24.358Z,4.50
2023-05-02T20:47:29.736Z,5.83
2023-05-02T20:49:34.656Z,4.83
2023-05-02T20:51:38.116Z,5.50
2023-05-02T20:53:41.630Z,7.13
2023-05-02T20:55:46.108Z,5.10
2023-05-02T20:57:51.505Z,4.97
2023-05-02T20:59:59.280Z,8.30
2023-05-02T21:02:03.082Z,5.50
2023-05-02T21:04:06.895Z,9.33
2023-05-02T21:06:13.630Z,7.87
2023-05-02T21:08:16.964Z,6.53
2023-05-02T21:10:20.271Z,5.40
2023-05-02T21:12:23.596Z,6.27
2023-05-02T21:14:27.549Z,6.50
2023-05-02T21:16:31.083Z,5.23
2023-05-02T21:18:34.515Z,5.40
2023-05-02T21:20:38.108Z,7.00
2023-05-02T21:22:43.037Z,5.70
2023-05-02T21:24:48.131Z,5.83
2023-05-02T21:26:51.614Z,6.80
2023-05-02T21:28:55.018Z,6.03
2023-05-02T21:30:58.465Z,8.10
2023-05-02T21:33:01.993Z,6.47
2023-05-02T21:35:06.215Z,5.93
2023-05-02T21:37:09.573Z,5.73
2023-05-02T21:39:14.988Z,5.80
2023-05-02T21:41:18.415Z,5.40
2023-05-02T21:43:21.994Z,7.13
2023-05-02T21:45:25.492Z,6.13
2023-05-02T21:47:29.405Z,7.50
2023-05-02T21:49:32.849Z,5.47
2023-05-02T21:51:38.625Z,6.57
2023-05-02T21:53:42.433Z,6.03
2023-05-02T21:55:47.134Z,9.10
2023-05-02T21:57:50.506Z,5.53
2023-05-02T21:59:53.876Z,5.63
2023-05-02T22:01:57.630Z,5.50
2023-05-02T22:04:01.147Z,6.10
2023-05-02T22:06:06.238Z,7.83
2023-05-02T22:08:11.819Z,5.73
2023-05-02T22:10:15.252Z,7.70
2023-05-02T22:12:20.618Z,6.77
2023-05-02T22:14:33.801Z,8.30
2023-05-02T22:16:48.279Z,8.53
2023-05-02T22:18:51.657Z,4.77
2023-05-02T22:20:57.203Z,6.50
2023-05-02T22:23:00.620Z,6.80
2023-05-02T22:25:04.050Z,6.57
2023-05-02T22:27:07.923Z,5.27
2023-05-02T22:29:13.333Z,7.77
2023-05-02T22:31:16.747Z,5.57
2023-05-02T22:33:20.140Z,6.60
2023-05-02T22:35:23.486Z,5.40
2023-05-02T22:37:27.058Z,5.87
2023-05-02T22:39:30.566Z,6.03
2023-05-02T22:41:33.890Z,5.00
2023-05-02T22:43:37.360Z,5.00
2023-05-02T22:45:42.081Z,6.40
2023-05-02T22:47:45.936Z,6.20
2023-05-02T22:49:49.374Z,6.93
2023-05-02T22:51:57.914Z,7.40
2023-05-02T22:54:01.894Z,4.90
2023-05-02T22:56:05.826Z,5.10
2023-05-02T22:58:09.235Z,6.00
2023-05-02T23:00:13.894Z,6.90
2023-05-02T23:02:18.770Z,8.10
2023-05-02T23:04:22.387Z,6.40
2023-05-02T23:06:28.452Z,9.90
2023-05-02T23:08:31.963Z,5.73
2023-05-02T23:10:35.392Z,6.27
2023-05-02T23:12:39.572Z,9.13
2023-05-02T23:14:42.885Z,6.57
2023-05-02T23:16:46.285Z,7.10
2023-05-02T23:18:51.039Z,5.20
2023-05-02T23:20:54.348Z,6.03
2023-05-02T23:22:58.474Z,5.87
2023-05-02T23:25:01.790Z,6.77
2023-05-02T23:27:06.248Z,7.20
2023-05-02T23:29:09.723Z,7.50
2023-05-02T23:31:13.662Z,6.33
2023-05-02T23:33:17.408Z,6.43
2023-05-02T23:35:22.287Z,8.80
2023-05-02T23:37:25.740Z,8.10
2023-05-02T23:39:29.104Z,8.37
2023-05-02T23:41:32.650Z,5.73
2023-05-02T23:43:36.258Z,5.30
2023-05-02T23:45:39.726Z,5.43
2023-05-02T23:47:43.150Z,6.07
2023-05-02T23:49:46.733Z,5.30
2023-05-02T23:51:51.413Z,7.37
2023-05-02T23:53:54.791Z,7.07
2023-05-02T23:55:58.771Z,4.63
2023-05-02T23:58:02.160Z,5.53
